Time;durP1;ratioP1;P1;durP2;ratioP2;P2;SDS_P1;SDS_P2;PMS_P1;PMS_P2;Temp;Humidity;BMP_temperature;BMP_pressure;BME280_temperature;BME280_humidity;BME280_pressure;Samples;Min_cycle;Max_cycle;Signal;HPM_P1;HPM_P2
2024/01/25 00:01:21;;;;;;;11.77;3.67;;;9.10;1.00;;;;;;5071703;28;20455;-76
2024/01/25 00:03:48;;;;;;;13.90;4.50;;;9.10;1.00;;;;;;5076880;28;20543;-77
2024/01/25 00:06:15;;;;;;;9.43;4.30;;;9.10;1.00;;;;;;5073799;28;20578;-76
2024/01/25 00:08:43;;;;;;;17.10;5.07;;;9.10;1.00;;;;;;5071683;27;20502;-76
2024/01/25 00:11:10;;;;;;;12.97;4.00;;;9.10;1.00;;;;;;5073649;28;20446;-77
2024/01/25 00:13:38;;;;;;;14.83;5.03;;;9.10;1.00;;;;;;5077383;27;20431;-76
2024/01/25 00:16:09;;;;;;;14.00;5.27;;;9.00;1.00;;;;;;5076365;27;20424;-76
2024/01/25 00:18:36;;;;;;;13.40;4.77;;;9.00;1.00;;;;;;5074122;28;20494;-76
2024/01/25 00:21:02;;;;;;;10.23;4.63;;;8.90;1.00;;;;;;5071235;28;20598;-76
2024/01/25 00:23:29;;;;;;;16.30;5.00;;;8.90;1.00;;;;;;5074303;28;20610;-78
2024/01/25 00:25:59;;;;;;;18.03;5.93;;;8.90;1.00;;;;;;5075351;27;20475;-77
2024/01/25 00:28:28;;;;;;;17.80;5.33;;;8.90;1.00;;;;;;5072340;27;20550;-76
2024/01/25 00:30:55;;;;;;;16.13;5.27;;;8.90;1.00;;;;;;5072827;27;20468;-76
2024/01/25 00:33:21;;;;;;;12.77;4.60;;;8.90;1.00;;;;;;5072307;28;20541;-78
2024/01/25 00:35:49;;;;;;;14.63;5.17;;;8.90;1.00;;;;;;5075950;28;21025;-76
2024/01/25 00:38:16;;;;;;;14.90;5.10;;;8.90;1.00;;;;;;5074118;28;20527;-75
2024/01/25 00:40:43;;;;;;;8.63;3.90;;;8.90;1.00;;;;;;5070515;28;20523;-78
2024/01/25 00:43:13;;;;;;;15.93;4.03;;;8.90;1.00;;;;;;5075437;28;21038;-75
2024/01/25 00:45:41;;;;;;;14.70;4.20;;;8.90;1.00;;;;;;5070555;28;20467;-75
2024/01/25 00:48:11;;;;;;;13.90;3.97;;;8.90;1.00;;;;;;5068638;28;20502;-76
2024/01/25 00:50:39;;;;;;;13.20;4.77;;;8.90;1.00;;;;;;5067094;28;20467;-69
2024/01/25 00:53:07;;;;;;;22.73;4.83;;;8.90;1.00;;;;;;5071640;28;20524;-69
2024/01/25 00:55:34;;;;;;;14.77;5.20;;;8.80;1.00;;;;;;5069615;27;20491;-70
2024/01/25 00:58:02;;;;;;;16.70;4.90;;;8.80;1.00;;;;;;5071252;28;20559;-70
2024/01/25 01:00:31;;;;;;;13.77;4.90;;;8.90;1.00;;;;;;5058466;28;20991;-69
2024/01/25 01:02:59;;;;;;;15.13;4.90;;;8.80;1.00;;;;;;5069409;28;20533;-70
2024/01/25 01:05:27;;;;;;;12.77;4.40;;;8.80;1.00;;;;;;5071128;28;21277;-69
2024/01/25 01:07:54;;;;;;;12.70;4.30;;;8.80;1.00;;;;;;5070156;28;20471;-72
2024/01/25 01:10:21;;;;;;;9.20;3.60;;;8.80;1.00;;;;;;5067475;27;20459;-69
2024/01/25 01:12:48;;;;;;;9.83;4.23;;;8.80;1.00;;;;;;5068651;28;20543;-69
2024/01/25 01:15:15;;;;;;;12.57;4.50;;;8.80;1.00;;;;;;5069536;28;20466;-70
2024/01/25 01:17:43;;;;;;;15.63;3.90;;;8.80;1.00;;;;;;5071208;28;20487;-69
2024/01/25 01:20:11;;;;;;;12.20;3.83;;;8.80;1.00;;;;;;5059350;28;20542;-70
2024/01/25 01:22:38;;;;;;;13.60;4.47;;;8.80;1.00;;;;;;5064467;27;20500;-73
2024/01/25 01:25:05;;;;;;;11.73;3.97;;;8.80;1.00;;;;;;5066678;28;20541;-68
2024/01/25 01:27:32;;;;;;;12.50;4.27;;;8.80;1.00;;;;;;5072691;28;20493;-72
2024/01/25 01:29:59;;;;;;;10.30;3.43;;;8.80;1.00;;;;;;5069485;28;20518;-72
2024/01/25 01:32:26;;;;;;;13.63;4.27;;;8.80;1.00;;;;;;5070627;27;20513;-75
2024/01/25 01:34:54;;;;;;;12.80;3.77;;;8.80;1.00;;;;;;5069891;27;20573;-69
2024/01/25 01:37:21;;;;;;;12.60;3.67;;;8.80;1.00;;;;;;5070027;27;20464;-70
2024/01/25 01:39:48;;;;;;;14.53;4.20;;;8.80;1.00;;;;;;5068400;28;20507;-70
2024/01/25 01:42:15;;;;;;;16.43;4.10;;;8.80;1.00;;;;;;5060572;28;20532;-71
2024/01/25 01:44:42;;;;;;;8.93;3.87;;;8.80;1.00;;;;;;5070102;28;20459;-70
2024/01/25 01:47:09;;;;;;;11.40;4.73;;;8.80;1.00;;;;;;5065793;28;20592;-69
2024/01/25 01:49:36;;;;;;;12.77;3.87;;;8.80;1.00;;;;;;5068086;28;21314;-68
2024/01/25 01:52:06;;;;;;;15.47;5.10;;;8.80;1.00;;;;;;5066575;27;20526;-70
2024/01/25 01:54:33;;;;;;;14.43;4.00;;;8.80;1.00;;;;;;5064674;28;20510;-69
2024/01/25 01:57:00;;;;;;;11.13;4.10;;;8.80;1.00;;;;;;5069239;28;21073;-69
2024/01/25 01:59:29;;;;;;;7.77;4.07;;;8.80;1.00;;;;;;5070329;28;20538;-77
2024/01/25 02:01:56;;;;;;;20.03;4.90;;;8.80;1.00;;;;;;5070497;27;20895;-75
2024/01/25 02:04:22;;;;;;;12.57;4.37;;;8.80;1.00;;;;;;5071659;28;20452;-80
2024/01/25 02:06:49;;;;;;;17.20;4.40;;;8.80;1.00;;;;;;5071173;28;20471;-79
2024/01/25 02:09:18;;;;;;;14.50;4.20;;;8.70;1.00;;;;;;5073892;27;20903;-78
2024/01/25 02:11:45;;;;;;;16.10;3.47;;;8.80;1.00;;;;;;5073334;28;20466;-76
2024/01/25 02:14:12;;;;;;;14.27;4.00;;;8.80;1.00;;;;;;5074069;28;20468;-77
2024/01/25 02:16:40;;;;;;;10.03;4.63;;;8.80;1.00;;;;;;5062336;28;20465;-79
2024/01/25 02:19:06;;;;;;;13.10;4.07;;;8.80;1.00;;;;;;5071839;27;20565;-79
2024/01/25 02:21:33;;;;;;;13.70;4.30;;;8.80;1.00;;;;;;5071234;27;20495;-76
2024/01/25 02:24:01;;;;;;;13.00;4.10;;;8.70;1.00;;;;;;5073394;28;21209;-76
2024/01/25 02:26:30;;;;;;;10.70;4.27;;;8.70;1.00;;;;;;5061822;28;21191;-77
2024/01/25 02:28:57;;;;;;;17.77;6.60;;;8.80;1.00;;;;;;5081033;28;20506;-79
2024/01/25 02:31:24;;;;;;;20.27;4.90;;;8.70;1.00;;;;;;5070268;28;20463;-79
2024/01/25 02:33:51;;;;;;;10.40;4.03;;;8.70;1.00;;;;;;5066590;27;20546;-79
2024/01/25 02:36:18;;;;;;;10.57;4.43;;;8.70;1.00;;;;;;5072012;28;20468;-78
2024/01/25 02:38:45;;;;;;;11.10;4.30;;;8.70;1.00;;;;;;5073096;27;20483;-78
2024/01/25 02:41:13;;;;;;;11.27;4.77;;;8.70;1.00;;;;;;5071423;28;20462;-77
2024/01/25 02:43:40;;;;;;;10.40;3.83;;;8.60;1.00;;;;;;5064599;27;20468;-78
2024/01/25 02:46:08;;;;;;;16.67;4.60;;;8.60;1.00;;;;;;5068153;28;20558;-74
2024/01/25 02:48:36;;;;;;;21.20;5.10;;;8.60;1.00;;;;;;5062938;27;20460;-79
2024/01/25 02:51:02;;;;;;;16.00;4.90;;;8.60;1.00;;;;;;5067846;27;20447;-77
2024/01/25 02:53:30;;;;;;;12.33;4.30;;;8.60;1.00;;;;;;5070468;28;20420;-79
2024/01/25 02:55:57;;;;;;;12.43;5.27;;;8.60;1.00;;;;;;5065241;28;20473;-78
2024/01/25 02:58:25;;;;;;;13.57;5.17;;;8.60;1.00;;;;;;5069425;28;20446;-80
2024/01/25 03:00:52;;;;;;;16.37;4.60;;;8.60;1.00;;;;;;5068928;28;20463;-78
2024/01/25 03:03:19;;;;;;;11.23;4.30;;;8.60;1.00;;;;;;5069181;28;20448;-79
2024/01/25 03:05:46;;;;;;;18.43;4.90;;;8.50;1.00;;;;;;5070371;28;20485;-76
2024/01/25 03:08:13;;;;;;;16.47;4.33;;;8.50;1.00;;;;;;5069608;28;20459;-79
2024/01/25 03:10:40;;;;;;;10.97;5.00;;;8.50;1.00;;;;;;5070641;28;20526;-79
2024/01/25 03:13:06;;;;;;;15.23;4.47;;;8.50;1.00;;;;;;5071488;27;20537;-77
2024/01/25 03:15:35;;;;;;;13.73;4.20;;;8.50;1.00;;;;;;5068478;28;20482;-78
2024/01/25 03:18:02;;;;;;;19.00;4.47;;;8.50;1.00;;;;;;5065031;28;20508;-77
2024/01/25 03:20:29;;;;;;;11.97;4.37;;;8.50;1.00;;;;;;5051888;28;20590;-79
2024/01/25 03:22:56;;;;;;;13.33;4.97;;;8.50;1.00;;;;;;5070980;27;20518;-77
2024/01/25 03:25:24;;;;;;;13.20;5.17;;;8.50;1.00;;;;;;5069336;27;21309;-74
2024/01/25 03:27:51;;;;;;;10.70;4.60;;;8.60;1.00;;;;;;5071885;27;20539;-77
2024/01/25 03:30:18;;;;;;;17.13;5.27;;;8.60;1.00;;;;;;5070689;27;20546;-76
2024/01/25 03:32:47;;;;;;;15.77;4.60;;;8.60;1.00;;;;;;5070163;27;20551;-72
2024/01/25 03:35:14;;;;;;;16.60;4.57;;;8.50;1.00;;;;;;5067989;27;20542;-78
2024/01/25 03:37:41;;;;;;;15.40;4.50;;;8.60;1.00;;;;;;5071180;28;20971;-78
2024/01/25 03:40:09;;;;;;;15.87;4.50;;;8.60;1.00;;;;;;5065914;27;20525;-79
2024/01/25 03:42:36;;;;;;;11.43;4.03;;;8.60;1.00;;;;;;5069715;28;20543;-75
2024/01/25 03:45:03;;;;;;;15.97;5.37;;;8.60;1.00;;;;;;5066412;27;20528;-74
2024/01/25 03:47:33;;;;;;;11.00;4.30;;;8.60;1.00;;;;;;5066374;28;20498;-78
2024/01/25 03:50:02;;;;;;;13.37;5.30;;;8.50;1.00;;;;;;5068491;27;20456;-77
2024/01/25 03:52:30;;;;;;;12.80;4.30;;;8.50;1.00;;;;;;5071723;28;20471;-77
2024/01/25 03:54:57;;;;;;;13.03;4.60;;;8.50;1.00;;;;;;5069931;28;20475;-78
2024/01/25 03:57:24;;;;;;;7.57;3.97;;;8.50;1.00;;;;;;5069563;28;21435;-78
2024/01/25 03:59:50;;;;;;;14.90;4.60;;;8.50;1.00;;;;;;5072099;28;20546;-77
2024/01/25 04:02:18;;;;;;;15.13;5.80;;;8.40;1.00;;;;;;5070394;28;20479;-77
2024/01/25 04:04:45;;;;;;;12.00;4.40;;;8.40;1.00;;;;;;5067017;27;20479;-79
2024/01/25 04:07:13;;;;;;;19.43;5.17;;;8.50;1.00;;;;;;5069534;27;21026;-76
2024/01/25 04:09:41;;;;;;;20.03;5.60;;;8.40;1.00;;;;;;5071522;27;20460;-77
2024/01/25 04:12:08;;;;;;;13.50;4.97;;;8.40;1.00;;;;;;5068761;28;20463;-78
2024/01/25 04:14:34;;;;;;;17.90;5.93;;;8.40;1.00;;;;;;5069870;27;20542;-78
2024/01/25 04:17:02;;;;;;;20.47;4.63;;;8.40;1.00;;;;;;5066577;27;20574;-73
2024/01/25 04:19:28;;;;;;;16.70;5.60;;;8.40;1.00;;;;;;5062228;28;20472;-70
2024/01/25 04:21:55;;;;;;;14.80;4.37;;;8.40;1.00;;;;;;5063830;28;20459;-70
2024/01/25 04:24:24;;;;;;;13.10;4.37;;;8.50;1.00;;;;;;5069204;27;20452;-69
2024/01/25 04:26:51;;;;;;;14.43;4.60;;;8.50;1.00;;;;;;5068856;27;20546;-70
2024/01/25 04:29:17;;;;;;;13.23;4.50;;;8.40;1.00;;;;;;5067887;27;20505;-75
2024/01/25 04:31:45;;;;;;;14.63;4.47;;;8.40;1.00;;;;;;5068587;27;20539;-71
2024/01/25 04:34:14;;;;;;;13.47;3.63;;;8.40;1.00;;;;;;5068031;27;20502;-76
2024/01/25 04:36:41;;;;;;;21.17;5.10;;;8.40;1.00;;;;;;5071202;28;20531;-75
2024/01/25 04:39:08;;;;;;;18.23;5.00;;;8.40;1.00;;;;;;5066866;27;20482;-72
2024/01/25 04:41:37;;;;;;;12.97;4.67;;;8.40;1.00;;;;;;5069019;27;20463;-70
2024/01/25 04:44:04;;;;;;;15.27;6.00;;;8.40;1.00;;;;;;5070114;27;20558;-75
2024/01/25 04:46:35;;;;;;;10.00;4.30;;;8.40;1.00;;;;;;5069927;28;20287;-72
2024/01/25 04:49:02;;;;;;;13.90;4.70;;;8.40;1.00;;;;;;5066270;28;20475;-71
2024/01/25 04:51:29;;;;;;;17.57;5.43;;;8.40;1.00;;;;;;5064772;28;20506;-72
2024/01/25 04:53:56;;;;;;;15.33;5.07;;;8.40;1.00;;;;;;5070604;28;20987;-70
2024/01/25 04:56:23;;;;;;;12.97;4.63;;;8.40;1.00;;;;;;5064673;27;20563;-71
2024/01/25 04:58:51;;;;;;;15.77;4.20;;;8.40;1.00;;;;;;5064456;28;20558;-72
2024/01/25 05:01:18;;;;;;;22.23;5.97;;;8.40;1.00;;;;;;5064986;27;20448;-72
2024/01/25 05:03:45;;;;;;;16.07;5.47;;;8.40;1.00;;;;;;5059613;28;20503;-72
2024/01/25 05:06:12;;;;;;;14.30;4.20;;;8.40;1.00;;;;;;5068035;27;20566;-70
2024/01/25 05:08:39;;;;;;;19.27;5.87;;;8.40;1.00;;;;;;5068557;28;20470;-70
2024/01/25 05:11:06;;;;;;;19.50;6.03;;;8.40;1.00;;;;;;5066543;28;20440;-71
2024/01/25 05:13:33;;;;;;;13.50;5.07;;;8.30;1.00;;;;;;5067205;28;20511;-71
2024/01/25 05:16:01;;;;;;;13.43;4.80;;;8.40;1.00;;;;;;5067101;27;20531;-74
2024/01/25 05:18:28;;;;;;;17.10;6.43;;;8.30;1.00;;;;;;5068126;28;21316;-71
2024/01/25 05:20:55;;;;;;;14.07;5.20;;;8.30;1.00;;;;;;5066619;28;20448;-71
2024/01/25 05:23:24;;;;;;;20.70;5.20;;;8.30;1.00;;;;;;5066216;27;20932;-72
2024/01/25 05:25:51;;;;;;;18.33;5.30;;;8.30;1.00;;;;;;5067319;28;20572;-71
2024/01/25 05:28:18;;;;;;;17.17;4.50;;;8.30;1.00;;;;;;5067254;28;20506;-71
2024/01/25 05:30:47;;;;;;;12.90;4.10;;;8.30;1.00;;;;;;5065505;27;20236;-80
2024/01/25 05:33:17;;;;;;;12.60;4.03;;;8.30;1.00;;;;;;5069819;27;20455;-79
2024/01/25 05:35:44;;;;;;;18.57;5.97;;;8.30;1.00;;;;;;5060795;28;20479;-79
2024/01/25 05:38:12;;;;;;;9.83;3.60;;;8.30;1.00;;;;;;5068664;27;20549;-75
2024/01/25 05:40:39;;;;;;;17.90;4.40;;;8.30;1.00;;;;;;5069898;28;20487;-77
2024/01/25 05:43:06;;;;;;;11.43;4.57;;;8.40;1.00;;;;;;5067630;28;20562;-79
2024/01/25 05:45:34;;;;;;;23.27;5.30;;;8.40;1.00;;;;;;5069873;27;20463;-79
2024/01/25 05:48:01;;;;;;;13.33;4.30;;;8.40;1.00;;;;;;5068171;27;20513;-81
2024/01/25 05:50:29;;;;;;;11.47;5.80;;;8.40;1.00;;;;;;5067622;28;20509;-76
2024/01/25 05:52:56;;;;;;;16.43;7.00;;;8.40;1.00;;;;;;5067913;28;20482;-79
2024/01/25 05:55:23;;;;;;;14.30;4.13;;;8.40;1.00;;;;;;5066549;28;20509;-76
2024/01/25 05:57:50;;;;;;;15.90;4.50;;;8.30;1.00;;;;;;5067621;28;20545;-80
2024/01/25 06:00:17;;;;;;;11.03;4.00;;;8.30;1.00;;;;;;5065683;28;20503;-77
2024/01/25 06:02:45;;;;;;;9.57;4.33;;;8.30;1.00;;;;;;5063304;28;20567;-78
2024/01/25 06:05:12;;;;;;;10.40;3.93;;;8.30;1.00;;;;;;5045739;28;21215;-78
2024/01/25 06:07:41;;;;;;;17.77;4.83;;;8.30;1.00;;;;;;5067721;27;21043;-78
2024/01/25 06:10:08;;;;;;;11.63;3.90;;;8.30;1.00;;;;;;5069126;28;20448;-77
2024/01/25 06:12:35;;;;;;;12.77;4.00;;;8.30;1.00;;;;;;5068468;28;20685;-78
2024/01/25 06:15:02;;;;;;;14.00;3.80;;;8.40;1.00;;;;;;5072514;27;20491;-77
2024/01/25 06:17:30;;;;;;;8.23;3.83;;;8.40;1.00;;;;;;5054171;28;21259;-79
2024/01/25 06:19:56;;;;;;;8.80;3.73;;;8.40;1.00;;;;;;5070709;28;20820;-76
2024/01/25 06:22:23;;;;;;;14.97;4.63;;;8.40;1.00;;;;;;5071343;27;20518;-77
2024/01/25 06:24:52;;;;;;;16.57;4.30;;;8.40;1.00;;;;;;5067889;28;20550;-78
2024/01/25 06:27:18;;;;;;;14.80;3.83;;;8.40;1.00;;;;;;5065429;28;20542;-78
2024/01/25 06:29:45;;;;;;;15.20;4.17;;;8.30;1.00;;;;;;5069960;28;20570;-76
2024/01/25 06:32:12;;;;;;;14.90;4.20;;;8.40;1.00;;;;;;5068505;27;21417;-79
2024/01/25 06:34:39;;;;;;;12.93;4.67;;;8.40;1.00;;;;;;5067936;27;20469;-76
2024/01/25 06:37:06;;;;;;;15.40;4.37;;;8.30;1.00;;;;;;5063651;28;20551;-76
2024/01/25 06:39:34;;;;;;;19.53;5.67;;;8.30;1.00;;;;;;5069299;28;20479;-72
2024/01/25 06:42:03;;;;;;;10.30;4.57;;;8.30;1.00;;;;;;5068306;27;20522;-75
2024/01/25 06:44:30;;;;;;;7.67;3.23;;;8.20;1.00;;;;;;5064283;28;20452;-71
2024/01/25 06:46:57;;;;;;;13.87;4.73;;;8.30;1.00;;;;;;5059641;28;20541;-72
2024/01/25 06:49:24;;;;;;;13.77;4.33;;;8.30;1.00;;;;;;5063758;28;20609;-73
2024/01/25 06:51:51;;;;;;;19.93;4.50;;;8.30;1.00;;;;;;5067933;27;20551;-68
2024/01/25 06:54:18;;;;;;;15.63;3.87;;;8.30;1.00;;;;;;5068073;28;20514;-75
2024/01/25 06:56:45;;;;;;;15.53;4.07;;;8.30;1.00;;;;;;5066054;27;21343;-72
2024/01/25 06:59:13;;;;;;;9.90;4.00;;;8.30;1.00;;;;;;5067778;28;20543;-72
2024/01/25 07:01:40;;;;;;;14.13;5.77;;;8.30;1.00;;;;;;5068980;27;20553;-73
2024/01/25 07:04:07;;;;;;;8.23;4.03;;;8.40;1.00;;;;;;5066358;28;20452;-71
2024/01/25 07:06:34;;;;;;;11.90;3.77;;;8.40;1.00;;;;;;5058563;28;20459;-71
2024/01/25 07:09:01;;;;;;;15.23;4.90;;;8.40;1.00;;;;;;5059463;28;20552;-71
2024/01/25 07:11:28;;;;;;;14.90;4.70;;;8.40;1.00;;;;;;5065204;27;21305;-70
2024/01/25 07:13:55;;;;;;;14.63;4.83;;;8.40;1.00;;;;;;5066054;28;20537;-71
2024/01/25 07:16:23;;;;;;;13.20;4.23;;;8.40;1.00;;;;;;5064448;27;20558;-75
2024/01/25 07:18:50;;;;;;;13.47;4.13;;;8.40;1.00;;;;;;5068165;27;20467;-72
2024/01/25 07:21:17;;;;;;;13.20;4.97;;;8.40;1.00;;;;;;5067495;28;20493;-71
2024/01/25 07:23:45;;;;;;;12.13;3.60;;;8.40;1.00;;;;;;5067231;28;20463;-71
2024/01/25 07:26:18;;;;;;;12.00;4.30;;;8.40;1.00;;;;;;5064652;27;20566;-73
2024/01/25 07:28:46;;;;;;;9.57;3.90;;;8.40;1.00;;;;;;5060433;28;20553;-71
2024/01/25 07:31:12;;;;;;;15.50;5.00;;;8.40;1.00;;;;;;5068518;28;20467;-72
2024/01/25 07:33:41;;;;;;;12.50;3.80;;;8.40;1.00;;;;;;5065200;28;20421;-71
2024/01/25 07:36:08;;;;;;;11.37;3.90;;;8.40;1.00;;;;;;5065915;28;20498;-71
2024/01/25 07:38:35;;;;;;;10.83;4.03;;;8.40;1.00;;;;;;5068074;28;20533;-72
2024/01/25 07:41:04;;;;;;;14.90;3.43;;;8.40;1.00;;;;;;5063638;28;20480;-72
2024/01/25 07:43:31;;;;;;;14.97;4.57;;;8.40;1.00;;;;;;5064007;27;20455;-71
2024/01/25 07:45:58;;;;;;;12.30;6.23;;;8.50;1.00;;;;;;5065895;28;20466;-73
2024/01/25 07:48:25;;;;;;;13.30;4.53;;;8.50;1.00;;;;;;5061722;27;20497;-73
2024/01/25 07:50:53;;;;;;;19.77;5.20;;;8.60;1.00;;;;;;5062719;27;20467;-74
2024/01/25 07:53:20;;;;;;;12.23;4.60;;;8.50;1.00;;;;;;5069508;27;20480;-75
2024/01/25 07:55:47;;;;;;;13.80;4.90;;;8.50;1.00;;;;;;5070839;28;20467;-75
2024/01/25 07:58:16;;;;;;;22.80;4.50;;;8.50;1.00;;;;;;5070690;27;20559;-74
2024/01/25 08:00:45;;;;;;;13.80;4.20;;;8.50;1.00;;;;;;5068846;28;20480;-75
2024/01/25 08:03:14;;;;;;;13.67;4.13;;;8.50;1.00;;;;;;5072484;27;20574;-76
2024/01/25 08:05:41;;;;;;;10.83;3.63;;;8.50;1.00;;;;;;5073682;27;21116;-76
2024/01/25 08:08:10;;;;;;;12.00;3.60;;;8.50;1.00;;;;;;5063540;27;20436;-76
2024/01/25 08:10:37;;;;;;;17.40;4.70;;;8.50;1.00;;;;;;5072393;27;20471;-76
2024/01/25 08:13:05;;;;;;;10.13;3.57;;;8.50;1.00;;;;;;5069033;27;20529;-79
2024/01/25 08:15:32;;;;;;;14.23;4.30;;;8.50;1.00;;;;;;5073975;27;20463;-76
2024/01/25 08:17:59;;;;;;;15.70;4.03;;;8.50;1.00;;;;;;5067721;27;20575;-77
2024/01/25 08:20:28;;;;;;;8.20;3.70;;;8.50;1.00;;;;;;5072323;27;20464;-74
2024/01/25 08:22:55;;;;;;;12.57;3.67;;;8.50;1.00;;;;;;5072023;27;20459;-76
2024/01/25 08:25:26;;;;;;;14.80;4.27;;;8.50;1.00;;;;;;5070925;27;20448;-75
2024/01/25 08:27:53;;;;;;;12.23;4.17;;;8.50;1.00;;;;;;5062284;28;20464;-76
2024/01/25 08:30:20;;;;;;;12.07;4.00;;;8.50;1.00;;;;;;5073187;28;20486;-76
2024/01/25 08:32:47;;;;;;;16.57;4.97;;;8.50;1.00;;;;;;5073172;27;20543;-75
2024/01/25 08:35:14;;;;;;;19.97;4.90;;;8.60;1.00;;;;;;5069926;28;20459;-77
2024/01/25 08:37:43;;;;;;;11.43;4.27;;;8.60;1.00;;;;;;5072125;28;20447;-75
2024/01/25 08:40:12;;;;;;;12.03;3.87;;;8.60;1.00;;;;;;5068174;28;20498;-74
2024/01/25 08:42:40;;;;;;;10.70;3.70;;;8.70;1.00;;;;;;5065473;28;20484;-76
2024/01/25 08:45:10;;;;;;;12.63;4.13;;;8.60;1.00;;;;;;5067993;28;20930;-77
2024/01/25 08:47:37;;;;;;;14.73;3.77;;;8.60;1.00;;;;;;5072989;28;21101;-80
2024/01/25 08:50:05;;;;;;;10.17;3.60;;;8.70;1.00;;;;;;5059185;27;20451;-74
2024/01/25 08:52:32;;;;;;;17.13;5.63;;;8.80;1.00;;;;;;5072349;28;20449;-76
2024/01/25 08:55:02;;;;;;;11.90;3.80;;;8.80;1.00;;;;;;5071734;28;20471;-77
2024/01/25 08:57:30;;;;;;;14.47;4.30;;;8.80;1.00;;;;;;5067085;27;20470;-74
2024/01/25 08:59:58;;;;;;;14.02;4.60;;;8.90;1.00;;;;;;5067551;28;20446;-73
2024/01/25 09:02:27;;;;;;;9.77;4.10;;;8.90;1.00;;;;;;5061458;27;20323;-72
2024/01/25 09:04:54;;;;;;;15.93;6.23;;;8.90;1.00;;;;;;5066431;28;20538;-74
2024/01/25 09:07:21;;;;;;;14.27;4.33;;;9.00;1.00;;;;;;5064847;28;20537;-73
2024/01/25 09:09:48;;;;;;;13.20;3.83;;;9.00;1.00;;;;;;5065497;27;20472;-71
2024/01/25 09:12:16;;;;;;;13.83;4.07;;;9.00;1.00;;;;;;5065530;28;20459;-74
2024/01/25 09:14:43;;;;;;;10.80;3.60;;;8.90;1.00;;;;;;5067818;27;20460;-73
2024/01/25 09:17:11;;;;;;;15.37;4.47;;;8.90;1.00;;;;;;5068408;28;20519;-74
2024/01/25 09:19:38;;;;;;;12.57;4.10;;;8.90;1.00;;;;;;5062127;27;20469;-72
2024/01/25 09:22:05;;;;;;;13.50;4.20;;;8.90;1.00;;;;;;5062018;28;20463;-72
2024/01/25 09:24:36;;;;;;;12.70;4.13;;;8.80;1.00;;;;;;5066129;28;20541;-71
2024/01/25 09:27:03;;;;;;;14.50;4.53;;;8.80;1.00;;;;;;5068013;28;20464;-71
2024/01/25 09:29:30;;;;;;;12.63;5.37;;;8.80;1.00;;;;;;5069890;28;20831;-71
2024/01/25 09:31:57;;;;;;;14.07;4.27;;;8.70;1.00;;;;;;5069362;27;20542;-71
2024/01/25 09:34:33;;;;;;;19.77;5.27;;;8.70;1.00;;;;;;5063930;28;20523;-72
2024/01/25 09:36:59;;;;;;;14.13;4.87;;;8.70;1.00;;;;;;5066521;28;20525;-72
2024/01/25 09:39:26;;;;;;;19.10;5.03;;;8.80;1.00;;;;;;5061425;28;20467;-73
2024/01/25 09:41:53;;;;;;;11.10;3.70;;;8.70;1.00;;;;;;5062967;27;20464;-71
2024/01/25 09:44:22;;;;;;;16.30;4.23;;;8.70;1.00;;;;;;5066038;27;20969;-71
2024/01/25 09:46:49;;;;;;;12.97;3.27;;;8.70;1.00;;;;;;5068996;27;21659;-73
2024/01/25 09:49:16;;;;;;;16.63;5.20;;;8.70;1.00;;;;;;5065805;28;20476;-73
2024/01/25 09:51:48;;;;;;;13.27;4.43;;;8.70;1.00;;;;;;5065589;28;20541;-74
2024/01/25 09:54:18;;;;;;;16.53;4.03;;;8.70;1.00;;;;;;5063879;28;20455;-71
2024/01/25 09:56:45;;;;;;;12.97;4.57;;;8.80;1.00;;;;;;5069175;28;21821;-71
2024/01/25 09:59:12;;;;;;;12.77;3.50;;;8.80;1.00;;;;;;5067453;27;20575;-73
2024/01/25 10:01:39;;;;;;;13.50;4.40;;;8.80;1.00;;;;;;5060355;28;20488;-74
2024/01/25 10:04:08;;;;;;;9.67;3.27;;;8.80;1.00;;;;;;5065875;27;20505;-74
2024/01/25 10:06:35;;;;;;;11.03;3.10;;;8.80;1.00;;;;;;5068519;27;20474;-73
2024/01/25 10:09:08;;;;;;;15.17;4.23;;;8.80;1.00;;;;;;5063675;27;20538;-74
2024/01/25 10:11:37;;;;;;;13.80;4.57;;;8.80;1.00;;;;;;5064893;28;20470;-77
2024/01/25 10:14:08;;;;;;;16.33;4.33;;;8.80;1.00;;;;;;5060561;28;20464;-77
2024/01/25 10:16:38;;;;;;;14.90;4.87;;;8.70;1.00;;;;;;5073079;28;21235;-78
2024/01/25 10:19:08;;;;;;;14.37;4.00;;;8.70;1.00;;;;;;5066802;27;20492;-76
2024/01/25 10:21:37;;;;;;;9.70;4.87;;;8.80;1.00;;;;;;5070610;28;20448;-76
2024/01/25 10:24:06;;;;;;;15.93;3.60;;;8.80;1.00;;;;;;5068658;28;21161;-75
2024/01/25 10:26:35;;;;;;;14.23;4.73;;;8.70;1.00;;;;;;5067003;27;21158;-78
2024/01/25 10:29:04;;;;;;;12.63;4.90;;;8.80;1.00;;;;;;5068869;27;20502;-75
2024/01/25 10:31:32;;;;;;;8.93;4.83;;;8.80;1.00;;;;;;5072252;27;20435;-77
2024/01/25 10:34:01;;;;;;;13.43;4.43;;;8.90;1.00;;;;;;5068427;28;20855;-77
2024/01/25 10:36:29;;;;;;;10.20;3.70;;;8.90;1.00;;;;;;5065983;28;20509;-78
2024/01/25 10:38:57;;;;;;;13.87;4.10;;;8.90;1.00;;;;;;5067081;28;20562;-77
2024/01/25 10:41:26;;;;;;;13.60;4.83;;;8.90;1.00;;;;;;5069178;27;20456;-78
2024/01/25 10:43:54;;;;;;;12.07;3.93;;;9.00;1.00;;;;;;5068639;28;20428;-75
2024/01/25 10:46:21;;;;;;;14.43;4.80;;;9.00;1.00;;;;;;5068009;28;20908;-77
2024/01/25 10:48:48;;;;;;;13.50;3.57;;;9.20;1.00;;;;;;5069735;27;20522;-75
2024/01/25 10:51:18;;;;;;;10.43;3.50;;;9.30;1.00;;;;;;5072305;28;20448;-77
2024/01/25 10:53:46;;;;;;;16.40;4.57;;;9.20;1.00;;;;;;5073712;28;20468;-76
2024/01/25 10:56:13;;;;;;;9.37;3.80;;;9.10;1.00;;;;;;5071657;28;20471;-74
2024/01/25 10:58:45;;;;;;;9.67;3.23;;;9.10;1.00;;;;;;5070314;28;20551;-75
2024/01/25 11:01:14;;;;;;;20.77;5.87;;;9.00;1.00;;;;;;5068144;28;21215;-75
2024/01/25 11:03:41;;;;;;;12.37;4.27;;;9.00;1.00;;;;;;5068613;28;20502;-76
2024/01/25 11:06:10;;;;;;;10.57;4.20;;;9.10;1.00;;;;;;5065345;27;21075;-76
2024/01/25 11:08:38;;;;;;;14.30;4.40;;;9.20;1.00;;;;;;5066508;28;20511;-76
2024/01/25 11:11:08;;;;;;;12.80;4.83;;;9.20;1.00;;;;;;5066192;28;20543;-76
2024/01/25 11:13:36;;;;;;;11.30;3.53;;;9.20;1.00;;;;;;5066873;27;20723;-76
2024/01/25 11:16:16;;;;;;;9.63;4.50;;;9.50;1.00;;;;;;5067812;28;20434;-77
2024/01/25 11:18:51;;;;;;;12.27;4.13;;;9.70;1.00;;;;;;5067994;27;20555;-74
2024/01/25 11:21:27;;;;;;;13.40;4.70;;;9.70;1.00;;;;;;5051489;28;20545;-72
2024/01/25 11:24:01;;;;;;;13.27;3.80;;;9.60;1.00;;;;;;5067122;27;20459;-73
2024/01/25 11:26:28;;;;;;;9.40;4.10;;;9.60;1.00;;;;;;5069048;28;20655;-72
2024/01/25 11:28:56;;;;;;;10.90;4.10;;;9.70;1.00;;;;;;5065841;27;20561;-72
2024/01/25 11:31:24;;;;;;;33.40;6.30;;;9.60;1.00;;;;;;5070858;28;20447;-72
2024/01/25 11:33:52;;;;;;;13.40;4.33;;;9.60;1.00;;;;;;5062078;28;21450;-74
2024/01/25 11:36:23;;;;;;;13.53;4.50;;;9.50;1.00;;;;;;5061723;27;20553;-71
2024/01/25 11:38:50;;;;;;;11.23;5.13;;;9.50;1.00;;;;;;5065071;28;21182;-72
2024/01/25 11:41:17;;;;;;;14.27;4.70;;;9.50;1.00;;;;;;5070142;27;20448;-71
2024/01/25 11:43:44;;;;;;;15.90;4.53;;;9.70;1.00;;;;;;5069566;28;20451;-71
2024/01/25 11:46:13;;;;;;;12.70;3.80;;;9.80;1.00;;;;;;5068767;28;20505;-72
2024/01/25 11:48:42;;;;;;;11.27;4.10;;;9.70;1.00;;;;;;5071367;28;20455;-72
2024/01/25 11:51:11;;;;;;;13.00;3.70;;;9.90;1.00;;;;;;5072477;28;20459;-73
2024/01/25 11:53:38;;;;;;;12.77;3.73;;;10.00;1.00;;;;;;5071198;27;20533;-72
2024/01/25 11:56:07;;;;;;;10.50;3.73;;;9.90;1.00;;;;;;5070445;27;20570;-72
2024/01/25 11:58:35;;;;;;;14.57;4.93;;;9.80;1.00;;;;;;5070358;28;20513;-72
2024/01/25 12:01:05;;;;;;;11.10;4.53;;;9.70;1.00;;;;;;5057966;28;20432;-74
2024/01/25 12:03:32;;;;;;;11.50;4.70;;;9.90;1.00;;;;;;5068952;27;20459;-72
2024/01/25 12:06:01;;;;;;;16.83;5.13;;;10.10;1.00;;;;;;5067432;28;20637;-75
2024/01/25 12:08:28;;;;;;;9.30;3.70;;;10.20;1.00;;;;;;5046571;27;21270;-75
2024/01/25 12:11:04;;;;;;;8.70;4.40;;;10.00;1.00;;;;;;5068916;28;20463;-73
2024/01/25 12:13:35;;;;;;;8.97;3.70;;;10.30;1.00;;;;;;5061234;27;20549;-74
2024/01/25 12:16:03;;;;;;;12.43;4.70;;;10.80;1.00;;;;;;5066428;27;20466;-74
2024/01/25 12:18:31;;;;;;;11.43;3.73;;;10.90;1.00;;;;;;5066621;27;20519;-73
2024/01/25 12:21:01;;;;;;;12.70;4.27;;;11.00;1.00;;;;;;5059535;28;20499;-74
2024/01/25 12:23:32;;;;;;;10.73;4.00;;;10.80;1.00;;;;;;5060811;27;20468;-74
2024/01/25 12:26:01;;;;;;;13.13;4.73;;;10.60;1.00;;;;;;5068293;27;20558;-73
2024/01/25 12:28:29;;;;;;;15.80;4.03;;;11.10;1.00;;;;;;5068235;27;20474;-73
2024/01/25 12:30:56;;;;;;;8.87;3.60;;;12.10;1.00;;;;;;5062742;28;21172;-74
2024/01/25 12:33:26;;;;;;;9.47;3.70;;;12.60;1.00;;;;;;5062608;27;20551;-73
2024/01/25 12:35:54;;;;;;;18.60;4.50;;;12.20;1.00;;;;;;5066252;28;20450;-75
2024/01/25 12:38:23;;;;;;;11.17;3.90;;;11.70;1.00;;;;;;5072926;27;20556;-73
2024/01/25 12:40:52;;;;;;;9.40;3.30;;;11.10;1.00;;;;;;5062339;28;20486;-75
2024/01/25 12:43:21;;;;;;;24.60;7.10;;;10.40;1.00;;;;;;5060520;28;20581;-73
2024/01/25 12:45:48;;;;;;;7.30;2.70;;;10.20;1.00;;;;;;5070464;28;20447;-74
2024/01/25 12:48:17;;;;;;;8.73;3.00;;;10.80;1.00;;;;;;5068934;27;20519;-72
2024/01/25 12:50:45;;;;;;;9.10;3.73;;;11.00;1.00;;;;;;5066942;28;20468;-72
2024/01/25 12:53:12;;;;;;;11.50;2.83;;;10.80;1.00;;;;;;5067643;27;21381;-71
2024/01/25 12:55:41;;;;;;;13.43;4.77;;;10.50;1.00;;;;;;5069114;28;20463;-74
2024/01/25 12:58:08;;;;;;;11.73;4.07;;;10.30;1.00;;;;;;5067249;27;20486;-74
2024/01/25 13:00:35;;;;;;;10.20;3.90;;;10.20;1.00;;;;;;5066235;28;20554;-76